Time;durP1;ratioP1;P1;durP2;ratioP2;P2;SDS_P1;SDS_P2;PMS_P1;PMS_P2;Temp;Humidity;BMP_temperature;BMP_pressure;BME280_temperature;BME280_humidity;BME280_pressure;Samples;Min_cycle;Max_cycle;Signal;HPM_P1;HPM_P2
2022/07/21 00:01:50;;;;;;;7.13;6.43;;;28.10;82.20;;;;;;5102985;28;20162;-93
2022/07/21 00:04:16;;;;;;;6.70;6.00;;;28.10;81.00;;;;;;5102014;28;20176;-93
2022/07/21 00:06:42;;;;;;;6.43;5.77;;;28.20;79.30;;;;;;5100431;28;20272;-94
2022/07/21 00:09:12;;;;;;;6.70;6.00;;;28.30;78.20;;;;;;5103344;28;20437;-94
2022/07/21 00:11:38;;;;;;;7.50;6.30;;;28.30;76.20;;;;;;5104341;28;20170;-94
2022/07/21 00:14:05;;;;;;;7.47;6.40;;;28.40;75.30;;;;;;5103146;28;20171;-94
2022/07/21 00:16:30;;;;;;;8.60;6.00;;;28.40;75.20;;;;;;5106307;28;20205;-94
2022/07/21 00:18:59;;;;;;;6.97;5.90;;;28.40;74.30;;;;;;5106137;28;20162;-94
2022/07/21 00:21:26;;;;;;;9.53;5.90;;;28.50;73.40;;;;;;5109604;28;20166;-94
2022/07/21 00:23:51;;;;;;;6.10;5.50;;;28.50;73.20;;;;;;5111298;28;20174;-93
2022/07/21 00:26:17;;;;;;;7.10;6.20;;;28.50;72.10;;;;;;5110601;28;20217;-94
2022/07/21 00:28:43;;;;;;;5.83;5.33;;;28.50;73.30;;;;;;5127753;28;20268;-94
2022/07/21 00:31:09;;;;;;;5.40;4.90;;;28.50;73.30;;;;;;5107464;28;20552;-94
2022/07/21 00:33:34;;;;;;;7.57;5.97;;;28.50;71.80;;;;;;5109141;28;20185;-94
2022/07/21 00:36:00;;;;;;;6.23;5.43;;;28.50;73.40;;;;;;5110758;28;20285;-95
2022/07/21 00:38:26;;;;;;;6.77;5.57;;;28.50;71.90;;;;;;5112843;28;20192;-95
2022/07/21 00:40:53;;;;;;;6.67;5.50;;;28.50;72.30;;;;;;5111859;28;20257;-93
2022/07/21 00:43:19;;;;;;;6.27;5.67;;;28.50;72.00;;;;;;5109926;28;20185;-94
2022/07/21 00:45:45;;;;;;;6.17;5.57;;;28.50;71.10;;;;;;5109864;28;20162;-94
2022/07/21 00:48:11;;;;;;;5.90;5.40;;;28.50;70.60;;;;;;5110914;28;20222;-94
2022/07/21 00:50:37;;;;;;;6.13;5.53;;;28.40;72.80;;;;;;5110517;28;20174;-94
2022/07/21 00:53:03;;;;;;;6.30;5.70;;;28.40;74.60;;;;;;5109451;28;20619;-94
2022/07/21 00:55:29;;;;;;;7.40;5.77;;;28.30;75.50;;;;;;5111323;28;20170;-94
2022/07/21 00:58:03;;;;;;;6.07;5.37;;;28.20;74.40;;;;;;5111393;28;20235;-94
2022/07/21 01:00:30;;;;;;;6.37;5.73;;;28.20;74.40;;;;;;5114016;28;20169;-93
2022/07/21 01:02:57;;;;;;;6.00;5.40;;;28.20;75.80;;;;;;5114428;28;20174;-94
2022/07/21 01:05:23;;;;;;;5.90;5.30;;;28.10;76.10;;;;;;5113151;28;20177;-94
2022/07/21 01:07:55;;;;;;;6.93;5.50;;;28.10;76.40;;;;;;5112833;28;20206;-94
2022/07/21 01:10:23;;;;;;;5.77;5.17;;;28.00;75.60;;;;;;5110283;28;20174;-94
2022/07/21 01:12:49;;;;;;;6.00;5.33;;;28.00;74.50;;;;;;5115397;28;20182;-94
2022/07/21 01:15:17;;;;;;;5.80;5.30;;;28.10;74.40;;;;;;5115321;28;20173;-94
2022/07/21 01:17:56;;;;;;;5.53;5.00;;;28.10;74.90;;;;;;5117122;28;20209;-94
2022/07/21 01:20:24;;;;;;;5.97;5.40;;;28.10;74.10;;;;;;5115789;28;20207;-94
2022/07/21 01:22:53;;;;;;;6.57;5.40;;;28.10;74.90;;;;;;5114415;28;20198;-94
2022/07/21 01:25:19;;;;;;;7.27;6.17;;;28.00;76.50;;;;;;5114915;28;20179;-94
2022/07/21 01:31:07;;;;;;;5.73;5.20;;;27.70;78.50;;;;;;5134891;28;20185;-92
2022/07/21 01:33:33;;;;;;;5.53;5.03;;;27.70;77.10;;;;;;5111209;28;20170;-94
2022/07/21 01:35:59;;;;;;;6.20;5.70;;;27.80;77.40;;;;;;5106915;28;20217;-93
2022/07/21 01:43:52;;;;;;;7.30;6.60;;;27.70;78.80;;;;;;5130563;28;20249;-95
2022/07/21 01:46:18;;;;;;;6.67;5.90;;;27.60;80.80;;;;;;5110467;28;20174;-94
2022/07/21 01:48:45;;;;;;;5.73;5.00;;;27.60;81.60;;;;;;5108961;28;20166;-94
2022/07/21 01:51:11;;;;;;;5.47;4.97;;;27.40;80.60;;;;;;5111006;28;20175;-93
2022/07/21 01:53:54;;;;;;;7.00;5.70;;;27.50;79.80;;;;;;5113460;28;20182;-94
2022/07/21 01:56:24;;;;;;;7.07;5.47;;;27.50;80.90;;;;;;5118301;28;20217;-93
2022/07/21 01:58:52;;;;;;;6.90;5.10;;;27.50;79.60;;;;;;5119609;28;20158;-94
2022/07/21 02:01:21;;;;;;;7.20;4.77;;;27.40;79.40;;;;;;5113819;28;20174;-94
2022/07/21 02:03:47;;;;;;;5.67;5.13;;;27.40;79.00;;;;;;5119887;28;20168;-94
2022/07/21 02:06:13;;;;;;;6.53;4.80;;;27.40;79.10;;;;;;5120092;28;20230;-92
2022/07/21 02:09:01;;;;;;;5.23;4.70;;;27.50;78.60;;;;;;5119512;28;20182;-94
2022/07/21 02:11:27;;;;;;;5.80;4.73;;;27.50;78.30;;;;;;5111624;28;20222;-94
2022/07/21 02:13:53;;;;;;;4.80;4.40;;;27.50;76.30;;;;;;5104358;28;20185;-93
2022/07/21 02:16:19;;;;;;;5.13;4.40;;;27.60;75.50;;;;;;5103146;28;20206;-93
2022/07/21 02:18:45;;;;;;;5.60;4.33;;;27.60;75.30;;;;;;5103087;28;20230;-94
2022/07/21 02:21:11;;;;;;;4.47;4.07;;;27.70;74.90;;;;;;5102648;28;20194;-93
2022/07/21 02:23:39;;;;;;;5.57;4.70;;;27.70;74.10;;;;;;5102449;28;20213;-94
2022/07/21 02:26:05;;;;;;;6.47;4.47;;;27.70;74.40;;;;;;5101994;28;20210;-93
2022/07/21 02:28:30;;;;;;;4.70;4.30;;;27.70;74.60;;;;;;5102313;28;20274;-93
2022/07/21 02:30:56;;;;;;;5.03;4.53;;;27.60;73.50;;;;;;5103331;28;20217;-93
2022/07/21 02:33:23;;;;;;;4.90;4.50;;;27.70;73.60;;;;;;5102950;28;20209;-93
2022/07/21 02:35:49;;;;;;;4.90;4.20;;;27.60;74.10;;;;;;5121486;28;20170;-94
2022/07/21 02:38:15;;;;;;;4.57;4.00;;;27.60;74.20;;;;;;5111090;28;20174;-94
2022/07/21 02:40:41;;;;;;;5.73;4.33;;;27.60;72.80;;;;;;5107972;28;20194;-94
2022/07/21 02:43:08;;;;;;;4.70;4.20;;;27.60;73.30;;;;;;5102312;28;20170;-93
2022/07/21 02:45:36;;;;;;;5.70;4.73;;;27.60;72.80;;;;;;5101044;28;20178;-93
2022/07/21 02:48:08;;;;;;;5.33;4.53;;;27.60;73.30;;;;;;5101932;28;20505;-93
2022/07/21 02:50:39;;;;;;;5.73;4.37;;;27.50;75.40;;;;;;5102341;28;20531;-94
2022/07/21 02:53:07;;;;;;;4.80;4.40;;;27.40;74.80;;;;;;5106442;28;20177;-94
2022/07/21 02:55:34;;;;;;;6.47;4.50;;;27.40;73.60;;;;;;5112096;28;20177;-94
2022/07/21 02:58:18;;;;;;;4.70;4.17;;;27.50;75.10;;;;;;5109444;28;20202;-94
2022/07/21 03:00:55;;;;;;;4.87;4.37;;;27.40;74.20;;;;;;5105789;28;20173;-94
2022/07/21 03:03:23;;;;;;;4.73;4.23;;;27.40;74.90;;;;;;5106755;28;20209;-94
2022/07/21 03:05:49;;;;;;;5.83;3.87;;;27.40;75.00;;;;;;5109421;28;20166;-94
2022/07/21 03:08:15;;;;;;;4.83;4.07;;;27.40;74.80;;;;;;5108064;28;20449;-94
2022/07/21 03:10:41;;;;;;;4.30;3.90;;;27.40;73.10;;;;;;5110423;28;20174;-93
2022/07/21 03:13:08;;;;;;;4.70;4.00;;;27.40;74.20;;;;;;5110190;28;20201;-94
2022/07/21 03:15:34;;;;;;;5.33;4.50;;;27.50;73.80;;;;;;5115148;28;20174;-95
2022/07/21 03:18:00;;;;;;;4.23;3.70;;;27.50;72.70;;;;;;5111546;28;20210;-94
2022/07/21 03:20:29;;;;;;;4.30;3.90;;;27.50;72.80;;;;;;5112828;28;20170;-93
2022/07/21 03:22:55;;;;;;;6.23;4.03;;;27.50;71.40;;;;;;5110483;28;20201;-94
2022/07/21 03:25:21;;;;;;;5.07;3.83;;;27.50;72.60;;;;;;5105790;28;20261;-94
2022/07/21 03:27:48;;;;;;;4.70;3.93;;;27.40;72.00;;;;;;5104435;28;20269;-93
2022/07/21 03:30:14;;;;;;;5.30;4.33;;;27.40;72.00;;;;;;5104467;28;20435;-94
2022/07/21 03:32:43;;;;;;;6.13;4.13;;;27.40;73.90;;;;;;5107106;28;20178;-94
2022/07/21 03:35:10;;;;;;;4.43;4.03;;;27.30;74.30;;;;;;5109279;28;20338;-93
2022/07/21 03:38:13;;;;;;;5.00;4.00;;;27.30;73.80;;;;;;5110858;28;20202;-94
2022/07/21 03:40:39;;;;;;;4.60;4.17;;;27.30;73.20;;;;;;5054441;28;20192;-94
2022/07/21 03:43:06;;;;;;;4.00;3.60;;;27.30;72.70;;;;;;5104626;28;20179;-94
2022/07/21 03:45:34;;;;;;;4.33;3.93;;;27.30;72.30;;;;;;5116412;28;20238;-94
2022/07/21 03:48:08;;;;;;;4.70;3.90;;;27.30;72.10;;;;;;5115876;28;20178;-94
2022/07/21 03:50:35;;;;;;;4.60;3.87;;;27.30;71.50;;;;;;5112730;28;20205;-94
2022/07/21 03:53:01;;;;;;;4.70;4.20;;;27.40;72.20;;;;;;5109686;28;20192;-94
2022/07/21 03:55:27;;;;;;;4.27;3.87;;;27.40;72.80;;;;;;5108322;28;20579;-93
2022/07/21 03:57:56;;;;;;;4.33;3.53;;;27.40;71.40;;;;;;5109807;28;20598;-94
2022/07/21 04:00:36;;;;;;;4.00;3.70;;;27.40;71.50;;;;;;5112889;28;20154;-94
2022/07/21 04:03:07;;;;;;;4.10;3.73;;;27.30;71.00;;;;;;5113773;28;20173;-94
2022/07/21 04:05:34;;;;;;;5.13;3.67;;;27.30;72.70;;;;;;5115283;28;20553;-94
2022/07/21 04:07:59;;;;;;;4.00;3.60;;;27.30;71.30;;;;;;5116302;28;20191;-94
2022/07/21 04:10:29;;;;;;;4.30;3.90;;;27.30;70.00;;;;;;5116583;28;20174;-94
2022/07/21 04:12:57;;;;;;;4.50;4.10;;;27.40;70.00;;;;;;5118579;28;20174;-94
2022/07/21 04:15:24;;;;;;;4.40;3.80;;;27.40;72.40;;;;;;5115429;28;20174;-94
2022/07/21 04:17:50;;;;;;;4.40;4.00;;;27.40;73.20;;;;;;5113153;28;20281;-94
2022/07/21 04:20:16;;;;;;;4.73;4.23;;;27.30;72.70;;;;;;5110602;28;20463;-94
2022/07/21 04:22:47;;;;;;;4.50;3.93;;;27.30;74.40;;;;;;5108660;28;20178;-93
2022/07/21 04:25:13;;;;;;;5.23;4.20;;;27.20;74.70;;;;;;5107979;28;20242;-94
2022/07/21 04:27:40;;;;;;;4.60;3.80;;;27.00;76.70;;;;;;5112576;28;20185;-95
2022/07/21 04:30:08;;;;;;;5.10;3.63;;;26.90;76.40;;;;;;5110101;28;20170;-94
2022/07/21 04:32:38;;;;;;;3.97;3.57;;;27.00;75.70;;;;;;5104956;28;20177;-94
2022/07/21 04:35:05;;;;;;;5.70;4.60;;;27.00;74.60;;;;;;5103235;28;20182;-94
2022/07/21 04:37:30;;;;;;;4.20;3.90;;;27.10;77.00;;;;;;5102092;28;20224;-93
2022/07/21 04:39:57;;;;;;;5.23;4.33;;;27.10;76.00;;;;;;5111284;28;20162;-94
2022/07/21 04:42:23;;;;;;;4.50;4.10;;;27.10;75.20;;;;;;5108739;28;20174;-94
2022/07/21 04:44:49;;;;;;;4.10;3.70;;;27.10;74.00;;;;;;5105854;28;20268;-94
2022/07/21 04:47:15;;;;;;;4.27;3.37;;;27.20;72.60;;;;;;5105399;28;20198;-93
2022/07/21 04:49:41;;;;;;;3.80;3.50;;;27.20;71.80;;;;;;5104267;28;20170;-94
2022/07/21 04:52:07;;;;;;;5.03;4.53;;;27.30;71.10;;;;;;5102754;28;20178;-94
2022/07/21 04:54:32;;;;;;;3.87;3.57;;;27.40;71.50;;;;;;5102386;28;20181;-94
2022/07/21 04:56:59;;;;;;;4.30;4.00;;;27.40;70.40;;;;;;5100368;28;20232;-93
2022/07/21 04:59:25;;;;;;;5.17;4.27;;;27.40;71.90;;;;;;5099998;28;20260;-94
2022/07/21 05:01:50;;;;;;;5.50;4.30;;;27.40;71.20;;;;;;5099818;28;20201;-93
2022/07/21 05:04:16;;;;;;;4.60;4.20;;;27.40;70.50;;;;;;5099153;28;20350;-94
2022/07/21 05:06:43;;;;;;;5.23;4.80;;;27.40;70.60;;;;;;5098360;28;20231;-93
2022/07/21 05:09:09;;;;;;;3.83;3.53;;;27.40;70.70;;;;;;5097691;28;20170;-93
2022/07/21 05:11:35;;;;;;;4.37;3.87;;;27.40;70.10;;;;;;5096264;28;20170;-93
2022/07/21 05:14:00;;;;;;;7.03;6.40;;;27.40;70.50;;;;;;5095618;28;20174;-93
2022/07/21 05:16:26;;;;;;;4.63;4.20;;;27.40;71.70;;;;;;5096408;28;20213;-93
2022/07/21 05:18:52;;;;;;;5.27;4.00;;;27.40;70.70;;;;;;5096146;28;20234;-93
2022/07/21 05:21:18;;;;;;;4.53;3.80;;;27.40;69.70;;;;;;5096638;28;20220;-93
2022/07/21 05:23:45;;;;;;;4.40;4.00;;;27.40;69.40;;;;;;5096054;28;20469;-93
2022/07/21 05:26:12;;;;;;;4.77;4.37;;;27.40;69.10;;;;;;5095485;28;20166;-93
2022/07/21 05:28:38;;;;;;;4.50;4.03;;;27.50;68.50;;;;;;5113797;28;20162;-93
2022/07/21 05:31:04;;;;;;;4.40;4.00;;;27.50;67.80;;;;;;5096026;28;20230;-93
2022/07/21 05:33:30;;;;;;;5.43;4.93;;;27.50;67.60;;;;;;5094831;28;20241;-92
2022/07/21 05:35:55;;;;;;;6.87;5.83;;;27.50;68.20;;;;;;5095547;28;20282;-93
2022/07/21 05:38:22;;;;;;;4.10;3.80;;;27.50;68.70;;;;;;5094960;28;20214;-93
2022/07/21 05:40:47;;;;;;;4.30;3.90;;;27.50;66.80;;;;;;5094301;28;20178;-93
2022/07/21 05:43:13;;;;;;;4.23;3.90;;;27.60;66.20;;;;;;5094866;28;20166;-93
2022/07/21 05:45:39;;;;;;;4.53;3.77;;;27.60;65.90;;;;;;5096651;28;20311;-92
2022/07/21 05:48:05;;;;;;;5.37;4.87;;;27.70;66.30;;;;;;5097683;28;20174;-93
2022/07/21 05:50:31;;;;;;;3.90;3.60;;;27.70;67.10;;;;;;5097176;28;20217;-92
2022/07/21 05:52:57;;;;;;;3.97;3.60;;;27.70;65.10;;;;;;5095655;28;20213;-92
2022/07/21 05:55:22;;;;;;;4.73;4.23;;;27.70;64.90;;;;;;5096341;28;20435;-93
2022/07/21 05:57:48;;;;;;;4.03;3.73;;;27.70;66.00;;;;;;5095989;28;20198;-93
2022/07/21 06:00:16;;;;;;;4.33;3.93;;;27.70;66.00;;;;;;5096417;28;20189;-92
2022/07/21 06:02:42;;;;;;;5.40;4.90;;;27.80;64.80;;;;;;5096015;28;20170;-92
2022/07/21 06:05:08;;;;;;;5.73;5.10;;;27.80;65.20;;;;;;5097470;28;20202;-92
2022/07/21 06:07:34;;;;;;;4.97;4.43;;;27.80;66.90;;;;;;5096695;28;20269;-92
2022/07/21 06:10:00;;;;;;;5.03;4.53;;;27.80;65.20;;;;;;5096401;28;20654;-92
2022/07/21 06:12:27;;;;;;;6.60;6.00;;;27.80;66.30;;;;;;5095595;28;20228;-91
2022/07/21 06:14:55;;;;;;;3.80;3.50;;;27.80;65.70;;;;;;5097429;28;20329;-91
2022/07/21 06:17:21;;;;;;;5.13;4.73;;;27.90;64.60;;;;;;5095815;28;20202;-91
2022/07/21 06:19:46;;;;;;;6.17;5.43;;;27.90;67.10;;;;;;5114002;28;20190;-92
2022/07/21 06:22:12;;;;;;;4.50;4.10;;;27.90;67.10;;;;;;5096966;28;20506;-91
2022/07/21 06:24:38;;;;;;;5.20;4.70;;;27.80;65.70;;;;;;5096642;28;20459;-92
2022/07/21 06:27:04;;;;;;;4.90;3.77;;;27.70;68.80;;;;;;5096632;28;20350;-91
2022/07/21 06:29:30;;;;;;;5.30;4.23;;;27.70;66.60;;;;;;5096400;28;20169;-91
2022/07/21 06:31:55;;;;;;;4.50;4.10;;;27.80;66.50;;;;;;5097267;28;20170;-91
2022/07/21 06:34:21;;;;;;;4.50;3.87;;;27.80;65.60;;;;;;5097634;28;20181;-91
2022/07/21 06:36:47;;;;;;;4.40;4.00;;;28.00;64.60;;;;;;5096589;28;20198;-91
2022/07/21 06:39:13;;;;;;;5.23;4.73;;;28.00;64.70;;;;;;5114324;28;20264;-91
2022/07/21 06:41:39;;;;;;;4.70;4.30;;;28.00;65.70;;;;;;5095767;28;20282;-91
2022/07/21 06:44:06;;;;;;;5.33;4.73;;;28.00;64.10;;;;;;5095945;28;20196;-91
2022/07/21 06:46:33;;;;;;;5.27;4.87;;;27.90;65.60;;;;;;5096306;28;20203;-90
2022/07/21 06:48:58;;;;;;;4.90;4.20;;;27.80;65.80;;;;;;5096403;28;20291;-91
2022/07/21 06:51:24;;;;;;;4.50;4.10;;;27.80;64.50;;;;;;5095161;28;20241;-91
2022/07/21 06:53:50;;;;;;;4.67;4.27;;;27.80;64.30;;;;;;5095648;28;20197;-90
2022/07/21 06:56:19;;;;;;;5.30;4.90;;;27.80;64.40;;;;;;5095023;28;20289;-91
2022/07/21 06:58:45;;;;;;;7.40;4.87;;;27.90;64.70;;;;;;5093963;28;20811;-90
2022/07/21 07:01:11;;;;;;;4.50;4.10;;;27.90;64.60;;;;;;5095081;28;20262;-91
2022/07/21 07:03:37;;;;;;;4.43;4.10;;;27.90;64.30;;;;;;5095009;28;20305;-91
2022/07/21 07:06:04;;;;;;;4.00;3.60;;;27.80;66.60;;;;;;5096017;28;20175;-90
2022/07/21 07:08:31;;;;;;;6.90;4.33;;;27.80;65.00;;;;;;5095121;28;20504;-90
2022/07/21 07:10:57;;;;;;;4.13;3.83;;;27.90;64.20;;;;;;5112153;28;20163;-90
2022/07/21 07:13:22;;;;;;;4.50;4.20;;;28.00;64.70;;;;;;5094528;28;20219;-89
2022/07/21 07:15:48;;;;;;;4.97;4.53;;;28.10;64.40;;;;;;5095835;28;20178;-90
2022/07/21 07:18:14;;;;;;;5.33;4.40;;;28.20;64.10;;;;;;5094797;28;20185;-90
2022/07/21 07:20:40;;;;;;;5.97;5.37;;;28.20;64.00;;;;;;5094808;28;20451;-90
2022/07/21 07:23:06;;;;;;;5.20;4.70;;;28.30;64.40;;;;;;5093875;28;20311;-90
2022/07/21 07:25:32;;;;;;;6.27;5.67;;;28.40;62.00;;;;;;5093814;28;20200;-89
2022/07/21 07:27:58;;;;;;;6.13;4.53;;;28.40;63.00;;;;;;5094662;28;20529;-90
2022/07/21 07:30:25;;;;;;;5.70;4.90;;;28.30;61.90;;;;;;5095637;28;20170;-90
2022/07/21 07:32:51;;;;;;;6.33;5.43;;;28.40;64.10;;;;;;5095217;28;20182;-90
2022/07/21 07:35:17;;;;;;;4.55;4.18;;;28.60;63.20;;;;;;5095199;28;20223;-90
2022/07/21 07:37:45;;;;;;;7.00;6.33;;;28.70;61.90;;;;;;5095514;28;20218;-90
2022/07/21 07:40:14;;;;;;;5.23;4.57;;;28.90;65.70;;;;;;5094417;28;20210;-90
2022/07/21 07:42:40;;;;;;;5.27;4.50;;;29.00;60.20;;;;;;5094220;28;20165;-89
2022/07/21 07:45:07;;;;;;;4.90;4.50;;;29.80;59.30;;;;;;5095238;28;20171;-90
2022/07/21 07:47:34;;;;;;;6.72;4.53;;;30.50;57.80;;;;;;5093427;28;20749;-90
2022/07/21 07:49:59;;;;;;;5.35;4.85;;;31.20;57.00;;;;;;5094526;28;20182;-90
2022/07/21 07:52:26;;;;;;;4.82;4.03;;;31.30;55.70;;;;;;5093535;28;20521;-90
2022/07/21 07:54:52;;;;;;;4.88;4.45;;;31.40;55.20;;;;;;5094162;28;20286;-90
2022/07/21 07:57:18;;;;;;;5.50;5.00;;;32.10;54.90;;;;;;5112030;28;20297;-90
2022/07/21 07:59:44;;;;;;;4.45;3.88;;;33.20;53.20;;;;;;5093573;28;20280;-90
2022/07/21 08:02:09;;;;;;;4.18;3.75;;;34.10;50.80;;;;;;5093062;28;20598;-90
2022/07/21 08:04:35;;;;;;;4.72;4.22;;;34.70;49.50;;;;;;5093960;28;20169;-90
2022/07/21 08:07:02;;;;;;;4.43;4.03;;;35.10;49.80;;;;;;5093470;28;20185;-90
2022/07/21 08:09:29;;;;;;;4.38;4.00;;;35.60;48.60;;;;;;5093372;28;20516;-89
2022/07/21 08:11:54;;;;;;;3.92;3.63;;;35.20;48.40;;;;;;5094559;28;20170;-89
2022/07/21 08:14:20;;;;;;;3.80;3.50;;;35.00;48.60;;;;;;5113120;28;20162;-89
2022/07/21 08:16:46;;;;;;;4.07;3.63;;;35.00;48.30;;;;;;5093959;28;20209;-89
2022/07/21 08:19:12;;;;;;;4.07;3.60;;;35.50;47.90;;;;;;5111737;28;20162;-89
2022/07/21 08:21:38;;;;;;;4.40;4.00;;;34.80;48.20;;;;;;5094504;28;20170;-89
2022/07/21 08:24:04;;;;;;;4.22;3.58;;;34.20;48.50;;;;;;5092317;28;20578;-89
2022/07/21 08:26:30;;;;;;;3.75;3.45;;;34.70;48.50;;;;;;5092690;28;20278;-89
2022/07/21 08:28:57;;;;;;;4.00;3.70;;;35.20;47.80;;;;;;5092724;28;20265;-89
2022/07/21 08:31:23;;;;;;;4.32;3.92;;;35.90;47.20;;;;;;5110515;28;20166;-90
2022/07/21 08:33:51;;;;;;;5.22;4.30;;;35.80;46.80;;;;;;5092356;28;20471;-89
2022/07/21 08:36:17;;;;;;;5.03;3.70;;;34.80;47.70;;;;;;5092394;28;20202;-89
2022/07/21 08:38:43;;;;;;;5.28;4.72;;;33.80;48.60;;;;;;5092920;28;20181;-89
2022/07/21 08:41:10;;;;;;;5.45;4.82;;;33.30;49.70;;;;;;5093932;28;20595;-89
2022/07/21 08:43:36;;;;;;;4.97;4.18;;;33.20;50.30;;;;;;5109929;28;20167;-89
2022/07/21 08:46:02;;;;;;;4.45;4.10;;;32.80;50.80;;;;;;5110035;28;20175;-90
2022/07/21 08:48:29;;;;;;;4.45;4.05;;;32.50;51.00;;;;;;5110042;28;20498;-89
2022/07/21 08:50:56;;;;;;;4.20;3.90;;;32.50;50.40;;;;;;5092118;28;20200;-89
2022/07/21 08:53:22;;;;;;;3.83;3.53;;;32.30;50.50;;;;;;5091267;28;20163;-88
2022/07/21 08:55:48;;;;;;;5.22;3.92;;;32.40;50.50;;;;;;5093558;28;20178;-88
2022/07/21 08:58:15;;;;;;;4.35;3.95;;;32.50;50.50;;;;;;5090551;28;20632;-89
2022/07/21 09:00:46;;;;;;;4.82;4.40;;;32.50;50.50;;;;;;5092492;28;20235;-88
2022/07/21 09:03:19;;;;;;;4.28;3.85;;;32.20;51.20;;;;;;5092736;28;20657;-89
2022/07/21 09:06:11;;;;;;;5.80;4.55;;;31.80;51.70;;;;;;5092743;28;20178;-89
2022/07/21 09:08:40;;;;;;;5.85;4.05;;;31.40;51.80;;;;;;5086173;28;20186;-89
2022/07/21 09:11:22;;;;;;;4.15;3.75;;;31.20;52.60;;;;;;5092387;28;20203;-89
2022/07/21 09:14:07;;;;;;;4.82;4.15;;;31.00;52.60;;;;;;5109942;28;20198;-89
2022/07/21 09:16:43;;;;;;;6.72;4.57;;;30.80;52.90;;;;;;5110942;28;20190;-88
2022/07/21 09:19:23;;;;;;;7.03;4.40;;;30.70;53.60;;;;;;5113689;28;20583;-88
2022/07/21 09:21:53;;;;;;;5.03;4.20;;;30.70;53.90;;;;;;5115308;28;20193;-88
2022/07/21 09:24:25;;;;;;;3.58;3.28;;;30.60;53.60;;;;;;5097668;28;20174;-88
2022/07/21 09:27:14;;;;;;;4.22;3.83;;;30.70;53.50;;;;;;5097107;28;20246;-88
2022/07/21 09:29:51;;;;;;;4.35;4.00;;;30.70;53.40;;;;;;5097981;28;20189;-88
2022/07/21 09:32:23;;;;;;;6.63;3.50;;;30.70;53.70;;;;;;5097793;28;20432;-89
2022/07/21 09:34:52;;;;;;;6.90;3.65;;;30.80;53.00;;;;;;5096920;28;20235;-88
2022/07/21 09:37:19;;;;;;;3.75;3.45;;;30.80;53.60;;;;;;5096998;28;20218;-88
2022/07/21 09:39:48;;;;;;;4.00;3.65;;;30.70;53.40;;;;;;5095601;28;20173;-88
2022/07/21 09:42:30;;;;;;;3.83;3.47;;;30.60;53.40;;;;;;5096790;28;20276;-88
2022/07/21 09:44:58;;;;;;;4.82;4.40;;;30.50;54.10;;;;;;5096273;28;20209;-89
2022/07/21 09:47:27;;;;;;;5.28;4.05;;;30.40;54.10;;;;;;5096075;28;20339;-88
2022/07/21 09:49:53;;;;;;;4.25;3.83;;;30.30;54.40;;;;;;5095927;28;20247;-89
2022/07/21 09:52:23;;;;;;;3.75;3.45;;;30.20;54.30;;;;;;5113727;28;20166;-88
2022/07/21 09:54:51;;;;;;;3.33;3.13;;;30.10;54.40;;;;;;5114330;28;20166;-88
2022/07/21 09:57:18;;;;;;;4.45;3.83;;;30.00;54.50;;;;;;5114480;28;20355;-88
2022/07/21 09:59:45;;;;;;;4.15;3.72;;;29.90;55.10;;;;;;5113587;28;20296;-89
2022/07/21 10:02:19;;;;;;;4.40;4.00;;;29.80;55.10;;;;;;5113355;28;20552;-88
2022/07/21 10:05:06;;;;;;;4.82;3.72;;;29.80;54.90;;;;;;5096249;28;20188;-89
2022/07/21 10:07:35;;;;;;;5.13;3.70;;;29.90;55.00;;;;;;5095483;28;20280;-88
2022/07/21 10:10:02;;;;;;;4.78;4.32;;;29.90;54.90;;;;;;5095851;28;20360;-89
2022/07/21 10:12:27;;;;;;;5.07;4.47;;;29.80;55.10;;;;;;5096250;28;20223;-89
2022/07/21 10:14:54;;;;;;;4.57;3.63;;;29.70;55.70;;;;;;5113749;28;20222;-89
2022/07/21 10:17:21;;;;;;;4.45;3.60;;;29.80;55.30;;;;;;5097611;28;20194;-89
2022/07/21 10:20:07;;;;;;;4.85;3.67;;;29.80;55.00;;;;;;5114853;28;20162;-89
2022/07/21 10:22:54;;;;;;;3.80;3.50;;;29.80;55.20;;;;;;5095620;28;20405;-89
2022/07/21 10:25:22;;;;;;;4.22;3.40;;;29.80;55.20;;;;;;5113314;28;20163;-89
2022/07/21 10:28:27;;;;;;;3.90;3.60;;;29.80;55.10;;;;;;5113675;28;20368;-89
2022/07/21 10:30:55;;;;;;;4.13;3.65;;;29.80;55.00;;;;;;5095547;28;20177;-89
2022/07/21 10:33:41;;;;;;;5.07;4.13;;;29.70;55.20;;;;;;5111746;28;20166;-89
2022/07/21 10:36:07;;;;;;;4.97;3.95;;;29.70;55.20;;;;;;5113470;28;20178;-88
2022/07/21 10:38:35;;;;;;;4.35;3.63;;;29.70;55.30;;;;;;5095346;28;20186;-89
2022/07/21 10:41:03;;;;;;;4.90;3.95;;;29.70;54.90;;;;;;5094885;28;20182;-89
2022/07/21 10:43:29;;;;;;;4.15;3.63;;;29.80;54.80;;;;;;5113575;28;20278;-89
2022/07/21 10:45:57;;;;;;;4.57;4.00;;;29.70;54.70;;;;;;5095666;28;20554;-89
2022/07/21 10:48:41;;;;;;;4.47;4.07;;;29.70;54.90;;;;;;5094836;28;20174;-89
2022/07/21 10:51:08;;;;;;;5.65;4.28;;;29.60;54.90;;;;;;5094924;28;20167;-89
2022/07/21 10:53:34;;;;;;;3.97;3.60;;;29.60;55.00;;;;;;5112389;28;20175;-88
2022/07/21 10:55:59;;;;;;;5.75;4.53;;;29.50;55.00;;;;;;5094812;28;20181;-89
2022/07/21 10:58:26;;;;;;;3.97;3.33;;;29.50;54.70;;;;;;5093730;28;20166;-89
2022/07/21 11:00:56;;;;;;;3.88;3.58;;;29.60;54.90;;;;;;5112238;28;20422;-88
2022/07/21 11:03:27;;;;;;;4.18;3.47;;;29.60;55.00;;;;;;5094381;28;20166;-89
2022/07/21 11:06:05;;;;;;;3.45;3.15;;;29.60;55.00;;;;;;5094113;28;20178;-89
2022/07/21 11:08:38;;;;;;;3.55;3.25;;;29.50;54.90;;;;;;5094511;28;20170;-88
2022/07/21 11:11:16;;;;;;;3.72;3.40;;;29.50;55.10;;;;;;5093284;28;20186;-89
2022/07/21 11:14:00;;;;;;;5.00;3.85;;;29.50;55.40;;;;;;5094203;28;20205;-89
2022/07/21 11:16:46;;;;;;;3.70;3.40;;;29.40;55.00;;;;;;5111179;28;20194;-89
2022/07/21 11:19:39;;;;;;;3.45;3.15;;;29.40;55.40;;;;;;5095348;28;20619;-89
2022/07/21 11:22:07;;;;;;;3.88;3.33;;;29.40;55.50;;;;;;5094756;28;20251;-89
2022/07/21 11:24:33;;;;;;;3.72;3.42;;;29.30;55.50;;;;;;5094042;28;20177;-88
2022/07/21 11:27:04;;;;;;;3.95;3.38;;;29.30;55.50;;;;;;5111553;28;20167;-89
2022/07/21 11:29:31;;;;;;;4.68;4.00;;;29.30;55.30;;;;;;5094475;28;20201;-89
2022/07/21 11:31:58;;;;;;;4.97;4.47;;;29.30;55.80;;;;;;5092947;28;20323;-89
2022/07/21 11:34:25;;;;;;;4.20;3.70;;;29.20;55.90;;;;;;5093996;28;20178;-89
2022/07/21 11:37:00;;;;;;;4.10;3.70;;;29.20;55.70;;;;;;5093814;28;20304;-89
2022/07/21 11:39:26;;;;;;;4.13;3.72;;;29.20;55.90;;;;;;5094604;28;20193;-89
2022/07/21 11:41:54;;;;;;;5.18;4.15;;;29.10;56.00;;;;;;5076236;28;20603;-89
2022/07/21 11:44:25;;;;;;;4.50;4.10;;;29.00;56.10;;;;;;5092912;28;20167;-89
2022/07/21 11:46:56;;;;;;;4.67;3.77;;;29.00;56.30;;;;;;5094255;28;20552;-90
2022/07/21 11:49:21;;;;;;;5.20;4.20;;;28.90;56.50;;;;;;5094230;28;20205;-90
2022/07/21 11:52:06;;;;;;;4.17;3.80;;;29.00;56.60;;;;;;5093369;28;20239;-89
2022/07/21 11:54:48;;;;;;;4.10;3.70;;;28.90;57.40;;;;;;5093631;28;20247;-89
2022/07/21 11:57:16;;;;;;;4.60;4.15;;;28.90;57.10;;;;;;5092890;28;20629;-89
2022/07/21 11:59:43;;;;;;;4.23;3.90;;;29.00;57.10;;;;;;5094239;28;20170;-89
2022/07/21 12:02:13;;;;;;;4.40;4.00;;;28.90;57.10;;;;;;5094047;28;20170;-89
2022/07/21 12:04:49;;;;;;;4.30;3.90;;;29.00;57.00;;;;;;5112197;28;20246;-89
2022/07/21 12:07:33;;;;;;;4.50;3.57;;;29.00;57.50;;;;;;5093341;28;20515;-89
2022/07/21 12:10:07;;;;;;;4.20;3.77;;;28.90;57.80;;;;;;5093651;28;20620;-89
2022/07/21 12:12:36;;;;;;;4.63;4.23;;;28.90;57.50;;;;;;5094537;28;20198;-89
2022/07/21 12:15:17;;;;;;;4.30;3.90;;;28.90;57.30;;;;;;5111454;28;20202;-89
2022/07/21 12:17:56;;;;;;;3.80;3.50;;;28.90;57.60;;;;;;5093555;28;20210;-89
2022/07/21 12:20:43;;;;;;;5.63;4.90;;;28.90;58.00;;;;;;5093565;28;20170;-89
2022/07/21 12:23:22;;;;;;;4.17;3.77;;;28.90;58.50;;;;;;5111722;28;20167;-88
2022/07/21 12:25:48;;;;;;;4.20;3.80;;;28.90;59.20;;;;;;5093466;28;20170;-89
2022/07/21 12:28:14;;;;;;;4.17;3.80;;;28.80;58.60;;;;;;5094263;28;20178;-89
2022/07/21 12:30:44;;;;;;;4.63;3.70;;;28.80;59.30;;;;;;5112016;28;20211;-88
2022/07/21 12:33:09;;;;;;;4.03;3.63;;;28.70;59.50;;;;;;5094513;28;20240;-88
2022/07/21 12:35:37;;;;;;;4.63;4.20;;;28.70;59.20;;;;;;5094170;28;20169;-88
2022/07/21 12:38:04;;;;;;;3.90;3.60;;;28.80;60.10;;;;;;5092554;28;20216;-88
2022/07/21 12:40:32;;;;;;;3.77;3.20;;;28.80;60.30;;;;;;5092252;28;20186;-87
2022/07/21 12:43:07;;;;;;;3.90;3.40;;;28.80;59.70;;;;;;5109758;28;20165;-87
2022/07/21 12:45:44;;;;;;;6.80;3.95;;;28.80;59.00;;;;;;5093489;28;20169;-87
2022/07/21 12:48:12;;;;;;;3.78;3.45;;;28.80;59.80;;;;;;5093307;28;20601;-87
2022/07/21 12:50:40;;;;;;;3.83;3.53;;;28.80;60.70;;;;;;5111734;28;20166;-88
2022/07/21 12:53:09;;;;;;;3.60;3.30;;;28.80;60.20;;;;;;5090459;28;20459;-88
2022/07/21 12:55:36;;;;;;;5.05;3.35;;;28.80;60.50;;;;;;5091644;28;20307;-88
2022/07/21 12:58:02;;;;;;;3.60;3.30;;;28.80;60.40;;;;;;5092699;28;20352;-88
2022/07/21 13:00:27;;;;;;;3.22;2.88;;;28.80;60.60;;;;;;5091947;28;20166;-88
2022/07/21 13:02:55;;;;;;;3.80;3.20;;;28.80;61.30;;;;;;5109629;28;20566;-88
2022/07/21 13:05:22;;;;;;;3.38;3.08;;;28.70;62.00;;;;;;5091464;28;20236;-90